Time;durP1;ratioP1;P1;durP2;ratioP2;P2;SDS_P1;SDS_P2;PMS_P1;PMS_P2;Temp;Humidity;BMP_temperature;BMP_pressure;BME280_temperature;BME280_humidity;BME280_pressure;Samples;Min_cycle;Max_cycle;Signal;HPM_P1;HPM_P2
2021/04/01 00:00:24;;;;;;;34.53;18.10;;;;;;;;;;5053578;28;38187;-76
2021/04/01 00:02:54;;;;;;;30.60;17.63;;;;;;;;;;5035982;28;36915;-77
2021/04/01 00:05:22;;;;;;;33.13;17.67;;;;;;;;;;5024582;28;35534;-76
2021/04/01 00:07:48;;;;;;;31.15;16.83;;;;;;;;;;5056736;28;38663;-77
2021/04/01 00:10:16;;;;;;;32.63;16.23;;;;;;;;;;5055610;28;38716;-76
2021/04/01 00:12:43;;;;;;;27.45;16.33;;;;;;;;;;5054194;28;36604;-76
2021/04/01 00:15:10;;;;;;;31.73;17.58;;;;;;;;;;5049830;28;35792;-76
2021/04/01 00:17:38;;;;;;;31.25;17.63;;;;;;;;;;5021288;28;39458;-76
2021/04/01 00:20:05;;;;;;;31.90;17.02;;;;;;;;;;5027191;28;38000;-76
2021/04/01 00:22:32;;;;;;;28.50;16.75;;;;;;;;;;5029195;28;38130;-77
2021/04/01 00:24:58;;;;;;;30.13;16.48;;;;;;;;;;5055546;28;35467;-76
2021/04/01 00:27:24;;;;;;;30.40;17.25;;;;;;;;;;5053590;28;37846;-76
2021/04/01 00:29:52;;;;;;;33.13;17.23;;;;;;;;;;5055009;28;41109;-76
2021/04/01 00:32:19;;;;;;;32.95;17.75;;;;;;;;;;5037464;28;36632;-76
2021/04/01 00:34:45;;;;;;;28.92;17.35;;;;;;;;;;5035559;28;36243;-76
2021/04/01 00:37:11;;;;;;;34.88;19.23;;;;;;;;;;5017596;28;40023;-76
2021/04/01 00:39:38;;;;;;;34.53;19.58;;;;;;;;;;5023853;28;40062;-76
2021/04/01 00:42:05;;;;;;;35.65;19.83;;;;;;;;;;5025886;28;36618;-77
2021/04/01 00:44:31;;;;;;;33.03;19.20;;;;;;;;;;5055389;28;36313;-76
2021/04/01 00:46:58;;;;;;;30.35;18.48;;;;;;;;;;5024976;28;38844;-77
2021/04/01 00:49:24;;;;;;;33.05;20.25;;;;;;;;;;5060280;28;37633;-76
2021/04/01 00:51:50;;;;;;;32.22;18.83;;;;;;;;;;5053165;28;37018;-77
2021/04/01 00:54:17;;;;;;;35.42;19.38;;;;;;;;;;5024259;28;37115;-77
2021/04/01 00:56:43;;;;;;;38.13;19.85;;;;;;;;;;5025911;28;39003;-76
2021/04/01 00:59:10;;;;;;;38.97;21.60;;;;;;;;;;5057254;28;37317;-76
2021/04/01 01:04:09;;;;;;;38.17;21.38;;;;;;;;;;5022921;28;37468;-76
2021/04/01 01:06:36;;;;;;;39.95;22.10;;;;;;;;;;5055186;28;37644;-76
2021/04/01 01:09:03;;;;;;;43.33;24.02;;;;;;;;;;5053055;28;37673;-76
2021/04/01 01:11:29;;;;;;;42.78;22.80;;;;;;;;;;5030497;28;36558;-77
2021/04/01 01:13:56;;;;;;;40.33;22.35;;;;;;;;;;5034483;28;36114;-76
2021/04/01 01:16:22;;;;;;;37.17;22.08;;;;;;;;;;5019203;28;39279;-76
2021/04/01 01:18:48;;;;;;;40.30;21.65;;;;;;;;;;5059967;28;37153;-76
2021/04/01 01:21:16;;;;;;;40.38;22.77;;;;;;;;;;5017921;28;38973;-77
2021/04/01 01:23:42;;;;;;;43.28;24.17;;;;;;;;;;5054884;28;35901;-77
2021/04/01 01:26:09;;;;;;;42.53;22.90;;;;;;;;;;5055169;28;38698;-78
2021/04/01 01:28:35;;;;;;;43.65;25.25;;;;;;;;;;5056838;28;36349;-78
2021/04/01 01:31:02;;;;;;;43.85;23.67;;;;;;;;;;5064964;28;36489;-76
2021/04/01 01:33:28;;;;;;;43.22;23.95;;;;;;;;;;5024192;28;48943;-78
2021/04/01 01:35:55;;;;;;;41.03;24.30;;;;;;;;;;5059439;28;37808;-78
2021/04/01 01:38:22;;;;;;;42.78;24.05;;;;;;;;;;5059731;28;38833;-77
2021/04/01 01:40:48;;;;;;;46.20;25.80;;;;;;;;;;5056140;28;36761;-76
2021/04/01 01:43:15;;;;;;;41.85;25.08;;;;;;;;;;5036374;28;36304;-78
2021/04/01 01:45:43;;;;;;;41.92;23.08;;;;;;;;;;5024977;28;39165;-77
2021/04/01 01:48:09;;;;;;;50.28;26.38;;;;;;;;;;5059991;28;36284;-77
2021/04/01 01:50:37;;;;;;;44.92;25.77;;;;;;;;;;5037864;28;37794;-77
2021/04/01 01:53:04;;;;;;;44.33;24.95;;;;;;;;;;5019371;28;38423;-77
2021/04/01 01:55:32;;;;;;;36.00;21.60;;;;;;;;;;5049084;28;39001;-77
2021/04/01 01:57:58;;;;;;;42.92;21.65;;;;;;;;;;5051366;28;38710;-77
2021/04/01 02:00:26;;;;;;;41.40;21.30;;;;;;;;;;5032204;28;38919;-77
2021/04/01 02:02:57;;;;;;;43.80;23.67;;;;;;;;;;5032891;28;38205;-77
2021/04/01 02:05:25;;;;;;;44.45;22.90;;;;;;;;;;5065687;28;38530;-77
2021/04/01 02:07:52;;;;;;;44.83;24.95;;;;;;;;;;5063401;28;39254;-77
2021/04/01 02:10:19;;;;;;;50.35;24.88;;;;;;;;;;5034537;28;36175;-78
2021/04/01 02:12:45;;;;;;;46.20;24.65;;;;;;;;;;5036707;28;37742;-78
2021/04/01 02:15:13;;;;;;;44.22;24.63;;;;;;;;;;5033512;28;37849;-77
2021/04/01 02:17:39;;;;;;;47.97;25.98;;;;;;;;;;5068619;28;37729;-78
2021/04/01 02:20:06;;;;;;;49.60;26.52;;;;;;;;;;5059819;28;36197;-78
2021/04/01 02:22:33;;;;;;;49.05;25.52;;;;;;;;;;5063257;28;34201;-77
2021/04/01 02:24:59;;;;;;;45.72;24.73;;;;;;;;;;5024194;28;39874;-77
2021/04/01 02:27:26;;;;;;;51.42;26.00;;;;;;;;;;5032264;28;38750;-77
2021/04/01 02:29:52;;;;;;;48.67;26.15;;;;;;;;;;5063892;28;36643;-77
2021/04/01 02:32:19;;;;;;;54.22;25.50;;;;;;;;;;5062082;28;35846;-78
2021/04/01 02:34:45;;;;;;;46.45;25.10;;;;;;;;;;5033704;28;39595;-77
2021/04/01 02:37:12;;;;;;;46.60;23.92;;;;;;;;;;5057420;28;37514;-77
2021/04/01 02:39:38;;;;;;;45.40;25.05;;;;;;;;;;5065270;28;36918;-78
2021/04/01 02:42:05;;;;;;;48.65;25.90;;;;;;;;;;5068680;28;36300;-77
2021/04/01 02:44:31;;;;;;;48.80;26.13;;;;;;;;;;5026172;28;38983;-78
2021/04/01 02:46:57;;;;;;;53.70;28.33;;;;;;;;;;5033428;28;38158;-78
2021/04/01 02:49:24;;;;;;;53.15;28.05;;;;;;;;;;5059862;28;36843;-78
2021/04/01 02:51:50;;;;;;;57.28;27.10;;;;;;;;;;5061082;28;36008;-78
2021/04/01 02:54:16;;;;;;;48.95;26.40;;;;;;;;;;5029383;28;38811;-78
2021/04/01 02:56:43;;;;;;;48.85;26.55;;;;;;;;;;5031111;28;38055;-78
2021/04/01 02:59:09;;;;;;;53.35;26.95;;;;;;;;;;5039325;28;37439;-78
2021/04/01 03:01:36;;;;;;;50.17;26.75;;;;;;;;;;5031224;28;37112;-78
2021/04/01 03:04:07;;;;;;;54.92;26.70;;;;;;;;;;5058712;28;37926;-76
2021/04/01 03:06:34;;;;;;;54.70;26.50;;;;;;;;;;5025598;28;39616;-78
2021/04/01 03:09:00;;;;;;;59.25;27.85;;;;;;;;;;5029407;28;37799;-78
2021/04/01 03:11:27;;;;;;;48.17;25.38;;;;;;;;;;5061629;28;46925;-78
2021/04/01 03:13:53;;;;;;;47.22;25.30;;;;;;;;;;5023982;28;38935;-76
2021/04/01 03:16:19;;;;;;;54.75;26.90;;;;;;;;;;5022442;28;38374;-76
2021/04/01 03:18:46;;;;;;;53.58;26.40;;;;;;;;;;5038351;28;36656;-76
2021/04/01 03:21:12;;;;;;;50.28;25.58;;;;;;;;;;5023569;28;36796;-76
2021/04/01 03:23:38;;;;;;;58.55;30.15;;;;;;;;;;5030966;28;39073;-77
2021/04/01 03:26:05;;;;;;;52.53;26.08;;;;;;;;;;5058438;28;37941;-76
2021/04/01 03:28:32;;;;;;;54.92;27.38;;;;;;;;;;5040724;28;36934;-76
2021/04/01 03:31:01;;;;;;;53.20;28.05;;;;;;;;;;5024735;28;37854;-76
2021/04/01 03:33:31;;;;;;;52.67;28.35;;;;;;;;;;5059951;28;40492;-76
2021/04/01 03:35:58;;;;;;;54.70;28.30;;;;;;;;;;5054949;28;37227;-76
2021/04/01 03:38:25;;;;;;;52.97;27.42;;;;;;;;;;5022834;28;38678;-75
2021/04/01 03:40:53;;;;;;;53.05;28.35;;;;;;;;;;5026762;28;37404;-76
2021/04/01 03:43:20;;;;;;;49.42;26.40;;;;;;;;;;5055402;28;38509;-76
2021/04/01 03:45:47;;;;;;;59.05;26.55;;;;;;;;;;5053287;28;36788;-76
2021/04/01 03:48:13;;;;;;;51.15;26.17;;;;;;;;;;5057830;28;37273;-76
2021/04/01 03:50:39;;;;;;;53.53;27.70;;;;;;;;;;5028447;28;37230;-76
2021/04/01 03:53:06;;;;;;;51.25;28.05;;;;;;;;;;5031151;28;37625;-76
2021/04/01 03:58:28;;;;;;;58.65;28.50;;;;;;;;;;5025496;28;38349;-76
2021/04/01 04:08:59;;;;;;;53.50;27.25;;;;;;;;;;5019909;28;47930;-76
2021/04/01 04:14:03;;;;;;;54.08;28.67;;;;;;;;;;5022036;28;39141;-76
2021/04/01 04:16:30;;;;;;;62.85;29.05;;;;;;;;;;5022386;28;49456;-76
2021/04/01 04:18:56;;;;;;;58.75;27.60;;;;;;;;;;5023368;28;38012;-77
2021/04/01 04:21:22;;;;;;;50.42;25.90;;;;;;;;;;5048431;28;36738;-76
2021/04/01 04:23:50;;;;;;;60.75;25.15;;;;;;;;;;5025430;28;39475;-76
2021/04/01 04:26:17;;;;;;;49.20;22.98;;;;;;;;;;5058079;28;37254;-76
2021/04/01 04:28:44;;;;;;;51.83;24.50;;;;;;;;;;5026491;28;38001;-76
2021/04/01 04:31:10;;;;;;;51.00;24.05;;;;;;;;;;5053573;28;34088;-76
2021/04/01 04:33:37;;;;;;;52.50;24.42;;;;;;;;;;5034156;28;39647;-76
2021/04/01 04:36:04;;;;;;;49.05;25.27;;;;;;;;;;5054855;28;37558;-76
2021/04/01 04:38:30;;;;;;;49.63;24.70;;;;;;;;;;5056061;28;37421;-75
2021/04/01 04:40:57;;;;;;;49.85;26.23;;;;;;;;;;5029757;28;36612;-76
2021/04/01 04:43:25;;;;;;;50.10;26.45;;;;;;;;;;5032043;28;37926;-76
2021/04/01 04:45:51;;;;;;;51.75;26.98;;;;;;;;;;5031377;28;39909;-76
2021/04/01 04:48:17;;;;;;;52.33;27.00;;;;;;;;;;5056247;28;37017;-76
2021/04/01 04:50:44;;;;;;;55.53;27.83;;;;;;;;;;5023321;28;36843;-76
2021/04/01 04:53:11;;;;;;;57.33;28.88;;;;;;;;;;5040144;28;37980;-76
2021/04/01 04:55:37;;;;;;;57.78;31.05;;;;;;;;;;5057323;28;38809;-76
2021/04/01 04:58:10;;;;;;;61.47;30.05;;;;;;;;;;5059176;28;36726;-76
2021/04/01 05:05:51;;;;;;;60.03;30.63;;;;;;;;;;5022396;28;39431;-76
2021/04/01 05:08:18;;;;;;;60.30;32.22;;;;;;;;;;5053964;28;36796;-76
2021/04/01 05:10:44;;;;;;;66.90;34.22;;;;;;;;;;5056647;28;37757;-76
2021/04/01 05:13:11;;;;;;;67.30;35.25;;;;;;;;;;5048059;28;37417;-76
2021/04/01 05:15:45;;;;;;;66.65;32.25;;;;;;;;;;5020257;28;38797;-76
2021/04/01 05:18:28;;;;;;;68.40;35.42;;;;;;;;;;5017863;28;38109;-76
2021/04/01 05:20:56;;;;;;;68.20;34.85;;;;;;;;;;5020972;28;37118;-76
2021/04/01 05:23:31;;;;;;;65.93;34.08;;;;;;;;;;5025671;28;39782;-76
2021/04/01 05:28:52;;;;;;;68.78;34.55;;;;;;;;;;5020376;28;49513;-76
2021/04/01 05:31:20;;;;;;;71.55;37.00;;;;;;;;;;5020501;28;35744;-76
2021/04/01 05:33:49;;;;;;;67.25;35.92;;;;;;;;;;5025216;28;39100;-76
2021/04/01 05:36:21;;;;;;;69.45;36.25;;;;;;;;;;5040384;28;38043;-76
2021/04/01 05:38:49;;;;;;;69.65;37.67;;;;;;;;;;5040285;28;37125;-76
2021/04/01 05:41:16;;;;;;;71.38;37.47;;;;;;;;;;5025174;28;40500;-75
2021/04/01 05:43:48;;;;;;;73.65;37.70;;;;;;;;;;5036167;28;38988;-75
2021/04/01 05:46:24;;;;;;;72.38;38.28;;;;;;;;;;5003473;28;38627;-76
2021/04/01 05:49:05;;;;;;;67.93;36.50;;;;;;;;;;5004591;28;36893;-76
2021/04/01 06:00:16;;;;;;;69.47;38.25;;;;;;;;;;5003447;28;38062;-76
2021/04/01 06:05:51;;;;;;;70.57;38.88;;;;;;;;;;5001915;28;49627;-75
2021/04/01 06:08:24;;;;;;;74.38;40.10;;;;;;;;;;5006424;28;38432;-75
2021/04/01 06:10:50;;;;;;;;;;;;;;;;;;5021195;28;38928;-75
2021/04/01 06:13:17;;;;;;;74.55;40.35;;;;;;;;;;5024716;28;37229;-74
2021/04/01 06:15:48;;;;;;;78.15;42.75;;;;;;;;;;5042247;28;37576;-75
2021/04/01 06:18:16;;;;;;;99.95;53.17;;;;;;;;;;5024072;28;39178;-74
2021/04/01 06:20:44;;;;;;;109.25;61.90;;;;;;;;;;5021756;28;37946;-75
2021/04/01 06:23:12;;;;;;;118.47;67.53;;;;;;;;;;5020815;28;37801;-75
2021/04/01 06:25:40;;;;;;;124.30;71.72;;;;;;;;;;5022074;28;39855;-75
2021/04/01 06:28:11;;;;;;;121.47;71.47;;;;;;;;;;5053173;28;36929;-75
2021/04/01 06:30:57;;;;;;;126.35;73.95;;;;;;;;;;5043032;28;36667;-75
2021/04/01 06:33:25;;;;;;;123.30;72.97;;;;;;;;;;5036024;28;37042;-74
2021/04/01 06:35:56;;;;;;;128.88;73.28;;;;;;;;;;5009695;28;39386;-73
2021/04/01 06:38:28;;;;;;;123.72;72.93;;;;;;;;;;4997837;28;38696;-74
2021/04/01 06:40:59;;;;;;;131.73;75.03;;;;;;;;;;5014323;28;37347;-75
2021/04/01 06:43:48;;;;;;;133.50;72.95;;;;;;;;;;4996081;28;37211;-74
2021/04/01 06:46:16;;;;;;;133.85;73.95;;;;;;;;;;5034137;28;37625;-74
2021/04/01 06:51:25;;;;;;;131.60;73.65;;;;;;;;;;5003942;28;38671;-74
2021/04/01 06:54:18;;;;;;;133.32;77.68;;;;;;;;;;5003904;28;37304;-74
2021/04/01 07:02:22;;;;;;;132.35;76.75;;;;;;;;;;5024599;28;39365;-73
2021/04/01 07:04:51;;;;;;;134.75;76.97;;;;;;;;;;5015037;28;37129;-74
2021/04/01 07:07:19;;;;;;;139.25;78.95;;;;;;;;;;5032818;28;38764;-74
2021/04/01 07:12:39;;;;;;;130.40;77.65;;;;;;;;;;5026638;28;49649;-76
2021/04/01 07:15:11;;;;;;;134.95;77.78;;;;;;;;;;5026251;28;37445;-75
2021/04/01 07:17:53;;;;;;;133.07;76.15;;;;;;;;;;5041639;28;37895;-74
2021/04/01 07:20:38;;;;;;;136.57;79.50;;;;;;;;;;5042060;28;37388;-74
2021/04/01 07:23:33;;;;;;;135.10;75.25;;;;;;;;;;5038090;28;37298;-74
2021/04/01 07:47:58;;;;;;;128.57;75.10;;;;;;;;;;5025058;28;38228;-74
2021/04/01 07:50:26;;;;;;;138.88;77.10;;;;;;;;;;5056345;28;38082;-74
2021/04/01 07:52:59;;;;;;;129.13;76.93;;;;;;;;;;5022803;28;38653;-74
2021/04/01 07:55:37;;;;;;;134.77;78.63;;;;;;;;;;5024970;28;38928;-74
2021/04/01 07:58:17;;;;;;;124.15;72.22;;;;;;;;;;5038947;28;37358;-74
2021/04/01 08:00:53;;;;;;;122.32;70.15;;;;;;;;;;5025554;28;39909;-74
2021/04/01 08:05:56;;;;;;;124.43;72.22;;;;;;;;;;5026115;28;38498;-74
2021/04/01 08:08:24;;;;;;;120.13;71.55;;;;;;;;;;5039333;28;35998;-74
2021/04/01 08:10:59;;;;;;;133.00;74.55;;;;;;;;;;5025981;28;39469;-74
2021/04/01 08:13:30;;;;;;;127.20;72.60;;;;;;;;;;5020038;28;39258;-74
2021/04/01 08:15:59;;;;;;;127.78;73.57;;;;;;;;;;5023410;28;38158;-76
2021/04/01 08:18:29;;;;;;;133.60;75.75;;;;;;;;;;5022914;28;37388;-75
2021/04/01 08:21:03;;;;;;;140.43;79.05;;;;;;;;;;5054592;28;37925;-76
2021/04/01 08:23:31;;;;;;;135.68;79.50;;;;;;;;;;5022419;28;49022;-76
2021/04/01 08:26:22;;;;;;;137.00;79.28;;;;;;;;;;5024405;28;39092;-77
2021/04/01 08:36:52;;;;;;;131.30;76.82;;;;;;;;;;5005189;28;39322;-78
2021/04/01 08:39:19;;;;;;;133.13;76.03;;;;;;;;;;5016604;28;36419;-76
2021/04/01 08:41:54;;;;;;;131.40;78.03;;;;;;;;;;5013212;28;39776;-76
2021/04/01 08:44:21;;;;;;;121.85;73.15;;;;;;;;;;5045079;28;37648;-76
2021/04/01 08:46:58;;;;;;;127.72;73.13;;;;;;;;;;5050770;28;38217;-76
2021/04/01 08:49:31;;;;;;;126.75;72.18;;;;;;;;;;5023788;28;37100;-76
2021/04/01 08:52:00;;;;;;;125.32;73.20;;;;;;;;;;5020104;28;38844;-76
2021/04/01 08:54:30;;;;;;;127.22;71.47;;;;;;;;;;5022471;28;46785;-76
2021/04/01 08:57:03;;;;;;;117.43;68.03;;;;;;;;;;5036496;28;37040;-76
2021/04/01 08:59:44;;;;;;;124.13;70.93;;;;;;;;;;5022548;28;49257;-78
2021/04/01 09:02:14;;;;;;;112.78;64.82;;;;;;;;;;5056978;28;39757;-78
2021/04/01 09:04:48;;;;;;;117.57;65.43;;;;;;;;;;5022977;28;38250;-76
2021/04/01 09:07:17;;;;;;;109.18;60.83;;;;;;;;;;5023733;28;37955;-77
2021/04/01 09:09:46;;;;;;;107.05;61.75;;;;;;;;;;5023347;28;36868;-77
2021/04/01 09:12:17;;;;;;;101.53;58.05;;;;;;;;;;5025553;28;41801;-77
2021/04/01 09:14:50;;;;;;;112.60;59.28;;;;;;;;;;5039420;28;37633;-77
2021/04/01 09:17:18;;;;;;;;;;;;;;;;;;5022498;28;37447;-77
2021/04/01 09:19:46;;;;;;;95.28;53.67;;;;;;;;;;5051145;28;36054;-77
2021/04/01 09:22:21;;;;;;;86.55;49.50;;;;;;;;;;5055465;28;37824;-77
2021/04/01 09:24:56;;;;;;;88.13;49.28;;;;;;;;;;5039134;28;37455;-77
2021/04/01 09:27:23;;;;;;;84.20;45.63;;;;;;;;;;5024544;28;38046;-76
2021/04/01 09:29:59;;;;;;;73.65;38.90;;;;;;;;;;5024923;28;37098;-80
2021/04/01 09:32:27;;;;;;;65.35;35.67;;;;;;;;;;5029787;28;40224;-77
2021/04/01 09:34:57;;;;;;;71.70;34.38;;;;;;;;;;5027410;28;39346;-77
2021/04/01 09:37:23;;;;;;;67.30;32.22;;;;;;;;;;5029872;28;38214;-78
2021/04/01 09:39:50;;;;;;;64.47;31.80;;;;;;;;;;5041652;28;36936;-77
2021/04/01 09:42:16;;;;;;;56.20;27.75;;;;;;;;;;5039378;28;37699;-77
2021/04/01 09:44:50;;;;;;;58.08;28.63;;;;;;;;;;5024592;28;39549;-77
2021/04/01 09:47:28;;;;;;;56.35;26.73;;;;;;;;;;5022923;28;37585;-77
2021/04/01 09:49:57;;;;;;;49.40;24.33;;;;;;;;;;5039530;28;36434;-77
2021/04/01 09:52:27;;;;;;;50.42;22.67;;;;;;;;;;5038223;28;38765;-77
2021/04/01 09:54:56;;;;;;;44.97;22.08;;;;;;;;;;5040343;28;37196;-77
2021/04/01 09:57:26;;;;;;;43.97;20.80;;;;;;;;;;5057761;28;38109;-76
2021/04/01 10:00:08;;;;;;;43.88;18.20;;;;;;;;;;5022345;28;36629;-77
2021/04/01 10:02:35;;;;;;;34.55;14.00;;;;;;;;;;5032406;28;47119;-75
2021/04/01 10:05:03;;;;;;;23.85;10.52;;;;;;;;;;5047848;28;38366;-76
2021/04/01 10:07:32;;;;;;;21.23;9.50;;;;;;;;;;5041435;28;37220;-76
2021/04/01 10:09:59;;;;;;;18.88;7.43;;;;;;;;;;5020834;28;37980;-77
2021/04/01 10:12:38;;;;;;;18.88;6.75;;;;;;;;;;5017332;28;38500;-76
2021/04/01 10:15:10;;;;;;;21.25;5.88;;;;;;;;;;5039960;28;38785;-76
2021/04/01 10:17:37;;;;;;;13.30;5.03;;;;;;;;;;5020404;28;38519;-76
2021/04/01 10:20:05;;;;;;;19.30;5.88;;;;;;;;;;5052539;28;35587;-76
2021/04/01 10:22:32;;;;;;;14.27;4.93;;;;;;;;;;5028520;28;40750;-77
2021/04/01 10:25:08;;;;;;;21.17;5.18;;;;;;;;;;5055754;28;37320;-77
2021/04/01 10:27:43;;;;;;;13.55;4.53;;;;;;;;;;5057358;28;47979;-77
2021/04/01 10:30:09;;;;;;;12.75;4.07;;;;;;;;;;5052921;28;35827;-77
2021/04/01 10:32:41;;;;;;;14.30;3.85;;;;;;;;;;5056711;28;37658;-77
2021/04/01 10:35:11;;;;;;;13.20;4.40;;;;;;;;;;5052501;28;38440;-77
2021/04/01 10:37:38;;;;;;;16.55;4.45;;;;;;;;;;5041521;28;37456;-76
2021/04/01 10:40:08;;;;;;;12.18;3.80;;;;;;;;;;5046735;28;36309;-77
2021/04/01 10:42:35;;;;;;;12.73;4.45;;;;;;;;;;5030286;28;39789;-77
2021/04/01 10:45:08;;;;;;;10.23;3.90;;;;;;;;;;5020973;28;40186;-77
2021/04/01 10:47:43;;;;;;;12.82;4.10;;;;;;;;;;5019192;28;47517;-77
2021/04/01 10:50:10;;;;;;;18.60;4.22;;;;;;;;;;5038203;28;37350;-78
2021/04/01 10:52:37;;;;;;;17.85;4.80;;;;;;;;;;5038268;28;37491;-77
2021/04/01 10:55:03;;;;;;;10.20;3.92;;;;;;;;;;5022753;28;38473;-78
2021/04/01 10:57:31;;;;;;;12.45;4.00;;;;;;;;;;5025314;28;37147;-78
2021/04/01 11:00:00;;;;;;;9.35;2.95;;;;;;;;;;5025297;28;37903;-78
2021/04/01 11:02:34;;;;;;;12.40;3.00;;;;;;;;;;5029414;28;38499;-79
2021/04/01 11:05:07;;;;;;;11.23;3.22;;;;;;;;;;5028237;28;37944;-78
2021/04/01 11:07:44;;;;;;;16.70;3.75;;;;;;;;;;5026479;28;47106;-78
2021/04/01 11:10:11;;;;;;;9.65;2.78;;;;;;;;;;5026442;28;37233;-78
2021/04/01 11:12:37;;;;;;;11.65;3.25;;;;;;;;;;5042966;28;38771;-77
2021/04/01 11:15:05;;;;;;;11.55;3.00;;;;;;;;;;5026212;28;39295;-77
2021/04/01 11:17:35;;;;;;;13.50;3.22;;;;;;;;;;5014178;28;38230;-78
2021/04/01 11:20:02;;;;;;;6.95;2.28;;;;;;;;;;5023122;28;35937;-78
2021/04/01 11:22:28;;;;;;;12.70;3.15;;;;;;;;;;5024252;28;47826;-76
2021/04/01 11:24:55;;;;;;;12.50;3.15;;;;;;;;;;5032456;28;37641;-76
2021/04/01 11:27:21;;;;;;;15.52;3.42;;;;;;;;;;5052238;28;36724;-77
2021/04/01 11:29:58;;;;;;;17.10;3.35;;;;;;;;;;5052532;28;35685;-75
2021/04/01 11:32:26;;;;;;;21.85;3.65;;;;;;;;;;5053170;28;39757;-76
2021/04/01 11:34:55;;;;;;;8.40;2.42;;;;;;;;;;5057798;28;37825;-76
2021/04/01 11:37:22;;;;;;;12.00;3.72;;;;;;;;;;5033332;28;40320;-75
2021/04/01 11:39:50;;;;;;;14.63;3.75;;;;;;;;;;5022578;28;37333;-77
2021/04/01 11:42:18;;;;;;;7.55;2.90;;;;;;;;;;5035409;28;39222;-76
2021/04/01 11:44:45;;;;;;;11.93;2.85;;;;;;;;;;5001276;28;37123;-76
2021/04/01 11:47:19;;;;;;;12.23;3.10;;;;;;;;;;5015119;28;36850;-76
2021/04/01 11:49:46;;;;;;;9.55;3.85;;;;;;;;;;4989980;28;36907;-76
2021/04/01 11:52:13;;;;;;;10.98;3.38;;;;;;;;;;5012445;28;39137;-76
2021/04/01 11:54:39;;;;;;;10.90;3.20;;;;;;;;;;5029579;28;38872;-76
2021/04/01 11:57:16;;;;;;;12.65;3.42;;;;;;;;;;5054812;28;36555;-77
2021/04/01 11:59:44;;;;;;;12.73;3.33;;;;;;;;;;5049860;28;35951;-77
2021/04/01 12:02:12;;;;;;;12.43;3.00;;;;;;;;;;5022731;28;38107;-77
2021/04/01 12:04:44;;;;;;;14.23;3.10;;;;;;;;;;5038432;28;38564;-77
2021/04/01 12:07:10;;;;;;;11.98;3.35;;;;;;;;;;5013872;28;37404;-76
2021/04/01 12:09:37;;;;;;;17.02;4.35;;;;;;;;;;5024195;28;37925;-76
2021/04/01 12:12:03;;;;;;;10.77;3.05;;;;;;;;;;5036021;28;38263;-76
2021/04/01 12:14:34;;;;;;;12.30;3.13;;;;;;;;;;5023436;28;38072;-76
2021/04/01 12:17:01;;;;;;;20.83;2.85;;;;;;;;;;5019616;28;38858;-76
2021/04/01 12:19:28;;;;;;;9.23;3.03;;;;;;;;;;5021035;28;48778;-75
2021/04/01 12:21:54;;;;;;;12.77;2.85;;;;;;;;;;5020485;28;39307;-76
2021/04/01 12:24:21;;;;;;;11.50;2.97;;;;;;;;;;5035247;28;39551;-76
2021/04/01 12:26:48;;;;;;;11.82;2.90;;;;;;;;;;5018581;28;38081;-76
2021/04/01 12:29:14;;;;;;;12.90;2.67;;;;;;;;;;5049448;28;35855;-76
2021/04/01 12:31:42;;;;;;;13.25;3.00;;;;;;;;;;5048829;28;38247;-76
2021/04/01 12:34:13;;;;;;;12.52;2.30;;;;;;;;;;5023872;28;38370;-76
2021/04/01 12:36:41;;;;;;;19.65;3.42;;;;;;;;;;5051405;28;36879;-75
2021/04/01 12:39:10;;;;;;;14.40;3.08;;;;;;;;;;5052559;28;38758;-76
2021/04/01 12:41:38;;;;;;;14.88;3.10;;;;;;;;;;5012642;28;38722;-76
2021/04/01 12:44:05;;;;;;;15.45;2.97;;;;;;;;;;5029179;28;37475;-76
2021/04/01 12:46:38;;;;;;;13.25;3.13;;;;;;;;;;5015092;28;39068;-76
2021/04/01 12:49:05;;;;;;;15.40;2.88;;;;;;;;;;5013162;28;37771;-76
2021/04/01 12:51:41;;;;;;;12.75;2.58;;;;;;;;;;5031057;28;38864;-76
2021/04/01 12:54:10;;;;;;;9.63;2.53;;;;;;;;;;5050445;28;37405;-77
2021/04/01 12:56:41;;;;;;;11.40;3.42;;;;;;;;;;5037391;28;36816;-78
2021/04/01 12:59:16;;;;;;;15.77;3.17;;;;;;;;;;5038969;28;37571;-75
2021/04/01 13:01:46;;;;;;;9.60;2.50;;;;;;;;;;5033946;28;38145;-79
2021/04/01 13:04:14;;;;;;;10.40;2.80;;;;;;;;;;5022535;28;38971;-76
2021/04/01 13:07:06;;;;;;;12.65;3.17;;;;;;;;;;5018894;28;37636;-76
2021/04/01 13:09:41;;;;;;;13.85;2.97;;;;;;;;;;5015279;28;47776;-76
2021/04/01 13:12:17;;;;;;;15.10;3.03;;;;;;;;;;5026521;28;39203;-76
2021/04/01 13:14:44;;;;;;;16.45;3.20;;;;;;;;;;5048485;28;37371;-76
2021/04/01 13:17:11;;;;;;;10.73;3.28;;;;;;;;;;5051920;28;37336;-76
2021/04/01 13:19:37;;;;;;;17.90;3.40;;;;;;;;;;5011107;28;37091;-76
2021/04/01 13:27:01;;;;;;;10.63;2.85;;;;;;;;;;5020235;28;38612;-74
2021/04/01 13:29:29;;;;;;;10.80;2.65;;;;;;;;;;5017014;28;48260;-76
2021/04/01 13:32:03;;;;;;;15.43;2.60;;;;;;;;;;4999913;28;39602;-75
2021/04/01 13:34:34;;;;;;;11.60;2.50;;;;;;;;;;5014891;28;47804;-76
2021/04/01 13:39:50;;;;;;;12.25;2.53;;;;;;;;;;5023051;28;49403;-76
2021/04/01 13:42:52;;;;;;;13.93;2.67;;;;;;;;;;5053698;28;37700;-76
2021/04/01 13:45:15;;;;;;;11.02;3.13;;;;;;;;;;5020012;28;38318;-78
2021/04/01 13:47:48;;;;;;;12.57;3.13;;;;;;;;;;5023352;28;37222;-77
2021/04/01 13:50:17;;;;;;;;;;;;;;;;;;5038085;28;35635;-76
2021/04/01 13:52:47;;;;;;;14.48;3.47;;;;;;;;;;5049433;28;37440;-76
2021/04/01 13:55:25;;;;;;;12.57;3.05;;;;;;;;;;5053882;28;37959;-76
2021/04/01 14:11:24;;;;;;;12.18;2.85;;;;;;;;;;5023000;28;38367;-75
2021/04/01 14:13:51;;;;;;;10.82;2.60;;;;;;;;;;5021804;28;39973;-75
2021/04/01 14:16:18;;;;;;;13.63;3.30;;;;;;;;;;5058974;28;38365;-76
2021/04/01 14:18:46;;;;;;;12.63;3.03;;;;;;;;;;5042591;28;36666;-76
2021/04/01 14:21:14;;;;;;;9.27;2.13;;;;;;;;;;5024506;28;37169;-75
2021/04/01 14:23:41;;;;;;;11.40;2.38;;;;;;;;;;5025434;28;39641;-76
2021/04/01 14:26:15;;;;;;;12.35;3.08;;;;;;;;;;5057124;28;37460;-75
2021/04/01 14:28:41;;;;;;;12.50;2.85;;;;;;;;;;5027993;28;37650;-76
2021/04/01 14:31:09;;;;;;;13.60;3.17;;;;;;;;;;5060620;28;35899;-77
2021/04/01 14:33:36;;;;;;;13.57;2.55;;;;;;;;;;5025242;28;39162;-75
2021/04/01 14:36:03;;;;;;;12.25;2.05;;;;;;;;;;5028536;28;38544;-76
2021/04/01 14:38:31;;;;;;;11.95;2.65;;;;;;;;;;5007433;28;48836;-76
2021/04/01 14:41:04;;;;;;;10.75;2.78;;;;;;;;;;5024407;28;36654;-78
2021/04/01 14:43:36;;;;;;;12.10;2.70;;;;;;;;;;5020364;28;48648;-77
2021/04/01 14:46:04;;;;;;;13.43;3.13;;;;;;;;;;5038755;28;37561;-77
2021/04/01 14:48:30;;;;;;;15.65;3.63;;;;;;;;;;5018028;28;36682;-78
2021/04/01 14:50:57;;;;;;;17.85;3.05;;;;;;;;;;5023325;28;36997;-80
2021/04/01 14:53:45;;;;;;;8.73;2.67;;;;;;;;;;5040038;28;38888;-78
2021/04/01 14:56:13;;;;;;;14.23;2.75;;;;;;;;;;5056106;28;38881;-77
2021/04/01 14:58:39;;;;;;;10.35;2.40;;;;;;;;;;5060064;28;37679;-80
2021/04/01 15:01:07;;;;;;;14.30;3.08;;;;;;;;;;5025714;28;36344;-76
2021/04/01 15:03:36;;;;;;;17.92;3.30;;;;;;;;;;5026102;28;40020;-77
2021/04/01 15:06:03;;;;;;;12.85;3.00;;;;;;;;;;5023320;28;36593;-77
2021/04/01 15:08:31;;;;;;;13.10;3.30;;;;;;;;;;5001896;28;49474;-76
2021/04/01 15:10:57;;;;;;;18.60;3.20;;;;;;;;;;4996407;28;35118;-76
2021/04/01 15:13:24;;;;;;;18.92;3.65;;;;;;;;;;5034241;28;38535;-76
2021/04/01 15:15:51;;;;;;;19.73;4.15;;;;;;;;;;5016233;28;37690;-76
2021/04/01 15:18:18;;;;;;;15.75;3.28;;;;;;;;;;5037135;28;36637;-76
2021/04/01 15:20:44;;;;;;;12.63;3.30;;;;;;;;;;5022135;28;37767;-78
2021/04/01 15:23:10;;;;;;;16.42;3.38;;;;;;;;;;5033446;28;35780;-76
2021/04/01 15:25:37;;;;;;;19.00;4.18;;;;;;;;;;5024603;28;37804;-77
2021/04/01 15:28:03;;;;;;;17.85;3.65;;;;;;;;;;5056779;28;36426;-75
2021/04/01 15:30:30;;;;;;;19.90;4.07;;;;;;;;;;5021091;28;36825;-78
2021/04/01 15:32:56;;;;;;;15.82;3.40;;;;;;;;;;5017882;28;39766;-78
2021/04/01 15:35:23;;;;;;;15.95;3.22;;;;;;;;;;5025331;28;38528;-78
2021/04/01 15:37:49;;;;;;;17.10;2.80;;;;;;;;;;5020316;28;37227;-78
2021/04/01 15:40:15;;;;;;;13.73;3.15;;;;;;;;;;5026045;28;37733;-79
2021/04/01 15:42:42;;;;;;;12.68;2.88;;;;;;;;;;5026358;28;38960;-79
2021/04/01 15:45:10;;;;;;;13.18;2.97;;;;;;;;;;5039916;28;38146;-79
2021/04/01 15:47:37;;;;;;;18.80;3.33;;;;;;;;;;5055527;28;37050;-80
2021/04/01 15:50:05;;;;;;;13.57;2.78;;;;;;;;;;5051402;28;36620;-80
2021/04/01 15:52:31;;;;;;;17.88;3.33;;;;;;;;;;5025242;28;38783;-79
2021/04/01 15:54:58;;;;;;;19.98;3.17;;;;;;;;;;5037475;28;37265;-79
2021/04/01 15:57:25;;;;;;;17.92;3.47;;;;;;;;;;5039962;28;36852;-79
2021/04/01 15:59:51;;;;;;;21.30;5.30;;;;;;;;;;5054498;28;35790;-80
2021/04/01 16:02:18;;;;;;;14.88;3.03;;;;;;;;;;5041440;28;37593;-80
2021/04/01 16:04:44;;;;;;;22.42;3.83;;;;;;;;;;5060537;28;37502;-79
2021/04/01 16:07:10;;;;;;;16.02;3.60;;;;;;;;;;5054046;28;38031;-75
2021/04/01 16:09:37;;;;;;;14.88;4.40;;;;;;;;;;5052273;28;36824;-78
2021/04/01 16:12:03;;;;;;;15.80;3.63;;;;;;;;;;5024309;28;36727;-78